Zim Hamburg — D5EY9 — position and weather

sailwx.info

Track history (hours):
 
Tides and Currents Weather Stations Pressure Air Temp Water Temp Dewpoint Dewpoint Depression Visibility Wind Speed Wind Dir Waves Ship Positions

Zim Hamburg

Last reported at 2018-Feb-25 00:06 UTC. Time now 2018-Feb-25 06:12 UTC.
Position N 37°49' E 122°30'.

Length 293 m; draft 9.5 m.

Type: Ship (hazmat cat A). MMSI: 635961393.

Date/timePositionNaut miles runAvg speedWind from/ knotsBaromVisibWave heightAir tempDewpointWater temp
2018-Feb-25 00:06N 37°49' E 122°30'317.8
2018-Feb-24 23:55N 37°50' E 122°26'  
2018-Feb-22 12:43N 38°14' E 121°48'315.2
2018-Feb-22 12:30N 38°13' E 121°51'1915.7
2018-Feb-22 11:17N 38°01' E 122°11'  
2018-Feb-20 00:48N 24°07' E 118°56'1216.1
2018-Feb-20 00:02N 23°59' E 118°46'116.1
2018-Feb-20 00:00N 23°59' E 118°45'1415.5
2018-Feb-19 23:05N 23°51' E 118°33'116.0
2018-Feb-19 23:00N 23°50' E 118°32'815.2
2018-Feb-19 22:29N 23°45' E 118°25'1014.9
2018-Feb-19 21:47N 23°38' E 118°16'714.9
2018-Feb-19 21:20N 23°34' E 118°10'514.9
2018-Feb-19 21:00N 23°31' E 118°06'714.9
2018-Feb-19 20:31N 23°26' E 118°00'915.2
2018-Feb-19 19:57N 23°20' E 117°53'715.6
2018-Feb-19 19:31N 23°16' E 117°48'816.5
2018-Feb-19 19:01N 23°10' E 117°42'816.9
2018-Feb-19 18:31N 23°03' E 117°36'917.7
2018-Feb-19 18:01N 22°55' E 117°32'917.9
2018-Feb-19 17:30N 22°47' E 117°28'918.0
2018-Feb-19 17:00N 22°39' E 117°23'1018.0
2018-Feb-19 16:28N 22°30' E 117°18'917.5
2018-Feb-19 15:56N 22°22' E 117°14'  
2018-Feb-15 23:04N 01°34' E 104°37'216.1
2018-Feb-15 22:57N 01°32' E 104°36'1115.9
2018-Feb-15 22:15N 01°24' E 104°28'2415.0
2018-Feb-15 20:37N 01°15' E 104°06'215.5
2018-Feb-15 20:28N 01°15' E 104°03'715.6
2018-Feb-15 20:00N 01°14' E 103°56'4 7.2
2018-Feb-15 19:30N 01°13' E 103°53'3 6.0
2018-Feb-15 19:00N 01°16' E 103°51'0 0.6
2018-Feb-15 18:30N 01°16' E 103°50'0 0.1
2018-Feb-15 17:54N 01°16' E 103°50'0 0.0
2018-Feb-15 17:30N 01°16' E 103°50'0 0.0
2018-Feb-15 17:00N 01°16' E 103°50'0 0.0
2018-Feb-15 16:30N 01°16' E 103°50'0 0.0
2018-Feb-15 15:54N 01°16' E 103°50'0 0.0
2018-Feb-15 15:30N 01°16' E 103°50'0 0.0
2018-Feb-15 15:00N 01°16' E 103°50'0 0.0
2018-Feb-15 14:30N 01°16' E 103°50'0 0.0
2018-Feb-15 14:00N 01°16' E 103°50'0 0.0
2018-Feb-15 13:30N 01°16' E 103°50'0 0.0
2018-Feb-15 13:00N 01°16' E 103°50'0 0.0
2018-Feb-15 12:30N 01°16' E 103°50'0 0.0
2018-Feb-15 12:00N 01°16' E 103°50'0 0.0
2018-Feb-15 11:30N 01°16' E 103°50'0 0.0
2018-Feb-15 11:00N 01°16' E 103°50'0 0.0
2018-Feb-15 10:30N 01°16' E 103°50'0 0.0
2018-Feb-15 10:00N 01°16' E 103°50'0 0.0
2018-Feb-15 09:30N 01°16' E 103°50'0 0.0
2018-Feb-15 08:57N 01°16' E 103°50'0 0.0
2018-Feb-15 08:30N 01°16' E 103°50'0 0.0
2018-Feb-15 07:54N 01°16' E 103°50'0 0.0
2018-Feb-15 07:30N 01°16' E 103°50'0 0.1
2018-Feb-15 07:00N 01°16' E 103°50'1 2.1
2018-Feb-15 06:30N 01°15' E 103°51'2 3.0
2018-Feb-15 06:00N 01°14' E 103°53'0 0.1
2018-Feb-15 05:27N 01°14' E 103°53'0 0.7
2018-Feb-15 05:00N 01°15' E 103°53'2 4.6
2018-Feb-15 04:30N 01°16' E 103°54'0 0.6
2018-Feb-15 03:58N 01°16' E 103°55'0 0.2
2018-Feb-15 03:22N 01°16' E 103°54'0 0.0
2018-Feb-15 02:55N 01°16' E 103°54'0 0.1
2018-Feb-15 02:28N 01°16' E 103°54'0 0.0
2018-Feb-15 01:55N 01°16' E 103°54'0 0.0
2018-Feb-15 01:28N 01°16' E 103°54'0 0.0
2018-Feb-15 00:58N 01°16' E 103°54'0 0.0
2018-Feb-15 00:28N 01°16' E 103°54'  
Track history (hours):
 
Tides and Currents Weather Stations Pressure Air Temp Water Temp Dewpoint Dewpoint Depression Visibility Wind Speed Wind Dir Waves Ship Positions

Zim Hamburg

Last reported at 2018-Feb-25 00:06 UTC. Time now 2018-Feb-25 06:12 UTC.
Position N 37°49' E 122°30'.

Length 293 m; draft 9.5 m.

Type: Ship (hazmat cat A). MMSI: 635961393.

Date/timePositionNaut miles runAvg speedWind from/ knotsBaromVisibWave heightAir tempDewpointWater temp
2018-Feb-25 00:06N 37°49' E 122°30'317.8
2018-Feb-24 23:55N 37°50' E 122°26'  
2018-Feb-22 12:43N 38°14' E 121°48'315.2
2018-Feb-22 12:30N 38°13' E 121°51'1915.7
2018-Feb-22 11:17N 38°01' E 122°11'  
2018-Feb-20 00:48N 24°07' E 118°56'1216.1
2018-Feb-20 00:02N 23°59' E 118°46'116.1
2018-Feb-20 00:00N 23°59' E 118°45'1415.5
2018-Feb-19 23:05N 23°51' E 118°33'116.0
2018-Feb-19 23:00N 23°50' E 118°32'815.2
2018-Feb-19 22:29N 23°45' E 118°25'1014.9
2018-Feb-19 21:47N 23°38' E 118°16'714.9
2018-Feb-19 21:20N 23°34' E 118°10'514.9
2018-Feb-19 21:00N 23°31' E 118°06'714.9
2018-Feb-19 20:31N 23°26' E 118°00'915.2
2018-Feb-19 19:57N 23°20' E 117°53'715.6
2018-Feb-19 19:31N 23°16' E 117°48'816.5
2018-Feb-19 19:01N 23°10' E 117°42'816.9
2018-Feb-19 18:31N 23°03' E 117°36'917.7
2018-Feb-19 18:01N 22°55' E 117°32'917.9
2018-Feb-19 17:30N 22°47' E 117°28'918.0
2018-Feb-19 17:00N 22°39' E 117°23'1018.0
2018-Feb-19 16:28N 22°30' E 117°18'917.5
2018-Feb-19 15:56N 22°22' E 117°14'  
2018-Feb-15 23:04N 01°34' E 104°37'216.1
2018-Feb-15 22:57N 01°32' E 104°36'1115.9
2018-Feb-15 22:15N 01°24' E 104°28'2415.0
2018-Feb-15 20:37N 01°15' E 104°06'215.5
2018-Feb-15 20:28N 01°15' E 104°03'715.6
2018-Feb-15 20:00N 01°14' E 103°56'4 7.2
2018-Feb-15 19:30N 01°13' E 103°53'3 6.0
2018-Feb-15 19:00N 01°16' E 103°51'0 0.6
2018-Feb-15 18:30N 01°16' E 103°50'0 0.1
2018-Feb-15 17:54N 01°16' E 103°50'0 0.0
2018-Feb-15 17:30N 01°16' E 103°50'0 0.0
2018-Feb-15 17:00N 01°16' E 103°50'0 0.0
2018-Feb-15 16:30N 01°16' E 103°50'0 0.0
2018-Feb-15 15:54N 01°16' E 103°50'0 0.0
2018-Feb-15 15:30N 01°16' E 103°50'0 0.0
2018-Feb-15 15:00N 01°16' E 103°50'0 0.0
2018-Feb-15 14:30N 01°16' E 103°50'0 0.0
2018-Feb-15 14:00N 01°16' E 103°50'0 0.0
2018-Feb-15 13:30N 01°16' E 103°50'0 0.0
2018-Feb-15 13:00N 01°16' E 103°50'0 0.0
2018-Feb-15 12:30N 01°16' E 103°50'0 0.0
2018-Feb-15 12:00N 01°16' E 103°50'0 0.0
2018-Feb-15 11:30N 01°16' E 103°50'0 0.0
2018-Feb-15 11:00N 01°16' E 103°50'0 0.0
2018-Feb-15 10:30N 01°16' E 103°50'0 0.0
2018-Feb-15 10:00N 01°16' E 103°50'0 0.0
2018-Feb-15 09:30N 01°16' E 103°50'0 0.0
2018-Feb-15 08:57N 01°16' E 103°50'0 0.0
2018-Feb-15 08:30N 01°16' E 103°50'0 0.0
2018-Feb-15 07:54N 01°16' E 103°50'0 0.0
2018-Feb-15 07:30N 01°16' E 103°50'0 0.1
2018-Feb-15 07:00N 01°16' E 103°50'1 2.1
2018-Feb-15 06:30N 01°15' E 103°51'2 3.0
2018-Feb-15 06:00N 01°14' E 103°53'0 0.1
2018-Feb-15 05:27N 01°14' E 103°53'0 0.7
2018-Feb-15 05:00N 01°15' E 103°53'2 4.6
2018-Feb-15 04:30N 01°16' E 103°54'0 0.6
2018-Feb-15 03:58N 01°16' E 103°55'0 0.2
2018-Feb-15 03:22N 01°16' E 103°54'0 0.0
2018-Feb-15 02:55N 01°16' E 103°54'0 0.1
2018-Feb-15 02:28N 01°16' E 103°54'0 0.0
2018-Feb-15 01:55N 01°16' E 103°54'0 0.0
2018-Feb-15 01:28N 01°16' E 103°54'0 0.0
2018-Feb-15 00:58N 01°16' E 103°54'0 0.0
2018-Feb-15 00:28N 01°16' E 103°54'  

Dump ship's entire track history